createdAt,value
2023-02-16T00:02:19.033Z,0.70
2023-02-16T00:05:27.614Z,0.70
2023-02-16T00:08:30.160Z,0.72
2023-02-16T00:11:53.466Z,0.60
2023-02-16T00:14:56.052Z,0.63
2023-02-16T00:18:00.739Z,0.56
2023-02-16T00:21:03.373Z,0.54
2023-02-16T00:24:06.610Z,0.63
2023-02-16T00:27:14.300Z,0.68
2023-02-16T00:30:19.801Z,0.69
2023-02-16T00:33:25.368Z,0.75
2023-02-16T00:36:27.912Z,0.80
2023-02-16T00:39:30.893Z,0.81
2023-02-16T00:42:36.435Z,0.71
2023-02-16T00:45:41.483Z,0.86
2023-02-16T00:48:45.277Z,0.88
2023-02-16T00:51:48.993Z,0.77
2023-02-16T00:54:51.563Z,0.78
2023-02-16T00:57:58.780Z,0.83
2023-02-16T01:01:03.722Z,0.87
2023-02-16T01:04:07.716Z,0.89
2023-02-16T01:07:33.596Z,0.88
2023-02-16T01:10:56.396Z,0.99
2023-02-16T01:13:59.142Z,1.01
2023-02-16T01:17:01.746Z,1.03
2023-02-16T01:20:05.560Z,1.06
2023-02-16T01:23:09.665Z,1.05
2023-02-16T01:26:15.057Z,1.03
2023-02-16T01:29:20.322Z,1.08
2023-02-16T01:32:25.514Z,1.10
2023-02-16T01:35:32.458Z,1.13
2023-02-16T01:38:35.190Z,1.13
2023-02-16T01:41:43.686Z,1.16
2023-02-16T01:44:57.120Z,1.17
2023-02-16T01:48:06.029Z,1.25
2023-02-16T01:51:17.475Z,1.27
2023-02-16T01:54:40.767Z,1.25
2023-02-16T01:57:45.428Z,1.28
2023-02-16T02:00:57.410Z,1.33
2023-02-16T02:04:23.403Z,1.32
2023-02-16T02:07:38.031Z,1.32
2023-02-16T02:11:08.666Z,1.19
2023-02-16T02:14:33.649Z,1.06
2023-02-16T02:17:37.710Z,1.12
2023-02-16T02:21:23.340Z,1.20
2023-02-16T02:24:58.740Z,1.17
2023-02-16T02:28:15.523Z,1.20
2023-02-16T02:31:59.340Z,1.19
2023-02-16T02:35:23.798Z,1.24
2023-02-16T02:38:52.286Z,1.24
2023-02-16T02:42:05.284Z,1.27
2023-02-16T02:45:24.377Z,1.30
2023-02-16T02:48:34.999Z,1.29
2023-02-16T02:51:40.590Z,1.26
2023-02-16T02:55:05.856Z,1.26
2023-02-16T02:58:31.445Z,1.26
2023-02-16T03:01:37.060Z,1.26
2023-02-16T03:04:39.921Z,1.25
2023-02-16T03:07:47.425Z,1.24
2023-02-16T03:11:16.906Z,1.32
2023-02-16T03:14:27.128Z,1.32
2023-02-16T03:17:54.498Z,1.32
2023-02-16T03:21:19.206Z,1.32
2023-02-16T03:24:51.598Z,1.44
2023-02-16T03:28:14.868Z,1.49
2023-02-16T03:31:22.471Z,1.52
2023-02-16T03:34:25.674Z,1.41
2023-02-16T03:37:28.326Z,1.40
2023-02-16T03:40:35.388Z,1.40
2023-02-16T03:43:38.007Z,1.43
2023-02-16T03:46:40.428Z,1.45
2023-02-16T03:49:42.958Z,1.44
2023-02-16T03:52:45.646Z,1.32
2023-02-16T03:55:49.259Z,1.41
2023-02-16T03:58:52.025Z,1.33
2023-02-16T04:01:55.479Z,1.34
2023-02-16T04:04:58.776Z,1.34
2023-02-16T04:08:01.496Z,1.40
2023-02-16T04:11:24.183Z,1.39
2023-02-16T04:14:26.944Z,1.39
2023-02-16T04:17:29.548Z,1.42
2023-02-16T04:20:33.602Z,1.43
2023-02-16T04:23:36.298Z,1.45
2023-02-16T04:26:39.018Z,1.39
2023-02-16T04:29:41.796Z,1.32
2023-02-16T04:32:44.693Z,1.34
2023-02-16T04:35:47.320Z,1.37
2023-02-16T04:38:50.091Z,1.46
2023-02-16T04:41:52.669Z,1.49
2023-02-16T04:44:55.287Z,1.44
2023-02-16T04:47:57.840Z,1.42
2023-02-16T04:51:00.716Z,1.44
2023-02-16T04:54:03.545Z,1.47
2023-02-16T04:57:06.271Z,1.53
2023-02-16T05:00:10.150Z,1.39
2023-02-16T05:03:12.779Z,1.44
2023-02-16T05:06:15.597Z,1.51
2023-02-16T05:09:18.144Z,1.57
2023-02-16T05:12:39.409Z,1.56
2023-02-16T05:15:42.307Z,1.48
2023-02-16T05:18:45.221Z,1.52
2023-02-16T05:21:47.884Z,1.60
2023-02-16T05:24:51.204Z,1.66
2023-02-16T05:27:54.727Z,1.74
2023-02-16T05:30:57.948Z,1.63
2023-02-16T05:34:00.811Z,1.68
2023-02-16T05:37:03.515Z,1.66
2023-02-16T05:40:06.826Z,1.64
2023-02-16T05:43:09.454Z,1.68
2023-02-16T05:46:12.514Z,1.67
2023-02-16T05:49:16.226Z,1.62
2023-02-16T05:52:19.134Z,1.74
2023-02-16T05:55:21.769Z,1.77
2023-02-16T05:58:24.483Z,1.79
2023-02-16T06:01:28.581Z,1.76
2023-02-16T06:04:32.836Z,1.83
2023-02-16T06:07:35.608Z,1.87
2023-02-16T06:10:38.170Z,1.87
2023-02-16T06:13:41.176Z,1.87
2023-02-16T06:16:45.769Z,1.84
2023-02-16T06:19:48.681Z,1.85
2023-02-16T06:22:51.484Z,1.92
2023-02-16T06:25:54.492Z,1.85
2023-02-16T06:28:57.552Z,1.85
2023-02-16T06:32:00.517Z,1.97
2023-02-16T06:35:03.447Z,1.96
2023-02-16T06:38:06.187Z,1.98
2023-02-16T06:41:09.566Z,1.98
2023-02-16T06:44:16.404Z,2.05
2023-02-16T06:47:19.304Z,2.14
2023-02-16T06:50:22.068Z,2.18
2023-02-16T06:53:25.951Z,2.17
2023-02-16T06:56:28.507Z,2.15
2023-02-16T06:59:31.556Z,2.21
2023-02-16T07:02:35.959Z,2.29
2023-02-16T07:05:38.832Z,2.39
2023-02-16T07:08:41.444Z,2.39
2023-02-16T07:11:44.586Z,2.37
2023-02-16T07:14:47.705Z,2.45
2023-02-16T07:17:50.561Z,2.48
2023-02-16T07:20:53.634Z,2.52
2023-02-16T07:23:56.284Z,2.56
2023-02-16T07:26:59.276Z,2.65
2023-02-16T07:30:02.129Z,2.70
2023-02-16T07:33:06.105Z,2.72
2023-02-16T07:36:10.348Z,2.75
2023-02-16T07:39:13.038Z,2.75
2023-02-16T07:42:16.203Z,2.83
2023-02-16T07:45:23.508Z,2.93
2023-02-16T07:48:26.439Z,3.03
2023-02-16T07:51:31.759Z,3.13
2023-02-16T07:54:34.514Z,3.15
2023-02-16T07:57:39.286Z,3.17
2023-02-16T08:00:42.230Z,3.28
2023-02-16T08:03:44.881Z,3.30
2023-02-16T08:06:48.946Z,3.31
2023-02-16T08:09:51.634Z,3.47
2023-02-16T08:12:54.792Z,3.75
2023-02-16T08:15:57.426Z,3.51
2023-02-16T08:19:01.303Z,3.76
2023-02-16T08:22:07.021Z,3.86
2023-02-16T08:25:10.003Z,3.97
2023-02-16T08:28:15.196Z,4.10
2023-02-16T08:31:21.020Z,4.02
2023-02-16T08:34:24.610Z,4.15
2023-02-16T08:37:27.414Z,4.29
2023-02-16T08:40:30.240Z,4.31
2023-02-16T08:43:33.029Z,4.35
2023-02-16T08:46:37.426Z,4.44
2023-02-16T08:49:40.774Z,4.30
2023-02-16T08:52:43.509Z,4.24
2023-02-16T08:55:52.514Z,4.30
2023-02-16T08:58:55.220Z,4.41
2023-02-16T09:01:59.350Z,4.35
2023-02-16T09:05:01.990Z,4.44
2023-02-16T09:08:05.524Z,4.71
2023-02-16T09:11:11.597Z,4.66
2023-02-16T09:14:15.732Z,4.42
2023-02-16T09:17:18.573Z,4.73
2023-02-16T09:20:21.799Z,4.77
2023-02-16T09:23:24.378Z,5.02
2023-02-16T09:26:29.662Z,5.04
2023-02-16T09:29:32.409Z,5.05
2023-02-16T09:32:35.435Z,5.04
2023-02-16T09:35:41.702Z,5.08
2023-02-16T09:38:44.916Z,5.09
2023-02-16T09:42:09.342Z,4.92
2023-02-16T09:45:14.533Z,4.90
2023-02-16T09:48:24.159Z,4.97
2023-02-16T09:51:36.019Z,5.09
2023-02-16T09:54:58.200Z,5.19
2023-02-16T09:58:16.162Z,5.09
2023-02-16T10:01:40.441Z,5.10
2023-02-16T10:05:04.990Z,4.80
2023-02-16T10:08:13.537Z,5.08
2023-02-16T10:11:40.995Z,5.12
2023-02-16T10:14:50.323Z,5.20
2023-02-16T10:18:00.353Z,5.26
2023-02-16T10:21:09.107Z,5.32
2023-02-16T10:24:12.833Z,5.33
2023-02-16T10:27:17.385Z,5.44
2023-02-16T10:30:22.750Z,5.72
2023-02-16T10:33:34.454Z,5.95
2023-02-16T10:37:13.628Z,5.69
2023-02-16T10:40:32.038Z,5.40
2023-02-16T10:43:48.595Z,5.73
2023-02-16T10:47:02.046Z,5.70
2023-02-16T10:50:07.397Z,5.60
2023-02-16T10:53:15.012Z,5.77
2023-02-16T10:56:42.126Z,5.81
2023-02-16T10:59:46.361Z,6.19
2023-02-16T11:02:52.870Z,6.02
2023-02-16T11:05:56.110Z,6.17
2023-02-16T11:09:01.564Z,5.42
2023-02-16T11:12:23.125Z,5.68
2023-02-16T11:15:27.381Z,5.58
2023-02-16T11:18:36.904Z,5.61
2023-02-16T11:21:44.601Z,5.83
2023-02-16T11:24:47.750Z,6.14
2023-02-16T11:27:56.320Z,6.28
2023-02-16T11:31:20.904Z,6.36
2023-02-16T11:34:31.727Z,6.56
2023-02-16T11:37:34.582Z,6.57
2023-02-16T11:40:38.743Z,6.77
2023-02-16T11:43:42.620Z,7.10
2023-02-16T11:46:45.960Z,6.86
2023-02-16T11:49:50.648Z,6.61
2023-02-16T11:52:58.670Z,6.85
2023-02-16T11:56:24.125Z,6.57
2023-02-16T11:59:27.549Z,6.73
2023-02-16T12:03:00.761Z,6.87
2023-02-16T12:06:08.289Z,6.73
2023-02-16T12:09:20.303Z,6.87
2023-02-16T12:12:34.375Z,6.87
2023-02-16T12:16:08.290Z,6.88
2023-02-16T12:19:17.654Z,6.68
2023-02-16T12:22:48.126Z,6.70
2023-02-16T12:26:33.398Z,6.82
2023-02-16T12:30:10.354Z,7.05
2023-02-16T12:33:19.008Z,7.24
2023-02-16T12:36:39.632Z,7.03
2023-02-16T12:40:13.618Z,6.62
2023-02-16T12:43:38.489Z,6.98
2023-02-16T12:46:49.161Z,6.83
2023-02-16T12:50:01.822Z,7.24
2023-02-16T12:53:14.682Z,6.94
2023-02-16T12:56:22.068Z,7.02
2023-02-16T12:59:43.415Z,7.47
2023-02-16T13:03:14.535Z,7.52
2023-02-16T13:06:34.112Z,7.62
2023-02-16T13:09:46.896Z,7.59
2023-02-16T13:13:01.289Z,7.63
2023-02-16T13:16:28.900Z,7.38
2023-02-16T13:19:32.955Z,7.45
2023-02-16T13:22:51.248Z,7.42
2023-02-16T13:26:11.375Z,7.34
2023-02-16T13:29:41.909Z,7.14
2023-02-16T13:32:54.437Z,7.00
2023-02-16T13:36:07.869Z,7.32
2023-02-16T13:39:24.098Z,7.38
2023-02-16T13:42:50.495Z,7.37
2023-02-16T13:45:55.113Z,7.18
2023-02-16T13:48:57.998Z,7.35
2023-02-16T13:52:01.093Z,7.29
2023-02-16T13:55:08.566Z,7.49
2023-02-16T13:58:14.368Z,7.41
2023-02-16T14:01:32.486Z,7.02
2023-02-16T14:04:35.942Z,7.12
2023-02-16T14:07:38.686Z,7.41
2023-02-16T14:10:53.660Z,6.99
2023-02-16T14:13:56.876Z,6.81
2023-02-16T14:17:15.285Z,7.22
2023-02-16T14:20:18.497Z,6.98
2023-02-16T14:23:29.591Z,6.75
2023-02-16T14:26:33.592Z,6.67
2023-02-16T14:29:59.814Z,6.87
2023-02-16T14:33:16.410Z,6.86
2023-02-16T14:36:27.312Z,6.85
2023-02-16T14:39:30.803Z,6.77
2023-02-16T14:42:35.258Z,6.78
2023-02-16T14:45:48.941Z,6.76
2023-02-16T14:49:24.663Z,6.73
2023-02-16T14:52:41.067Z,6.82
2023-02-16T14:56:17.292Z,6.86
2023-02-16T14:59:38.733Z,6.72
2023-02-16T15:02:55.814Z,6.60
2023-02-16T15:05:59.498Z,6.55
2023-02-16T15:09:07.242Z,6.56
2023-02-16T15:12:22.742Z,6.47
2023-02-16T15:15:33.173Z,6.36
2023-02-16T15:18:46.903Z,6.24
2023-02-16T15:22:11.362Z,6.24
2023-02-16T15:25:31.061Z,6.31
2023-02-16T15:28:40.038Z,6.27
2023-02-16T15:31:44.878Z,6.25
2023-02-16T15:34:50.815Z,6.13
2023-02-16T15:38:01.684Z,5.96
2023-02-16T15:41:16.679Z,5.66
2023-02-16T15:44:39.552Z,5.44
2023-02-16T15:47:45.882Z,5.37
2023-02-16T15:50:51.202Z,5.24
2023-02-16T15:54:04.540Z,5.13
2023-02-16T15:57:31.413Z,4.92
2023-02-16T16:00:34.571Z,4.84
2023-02-16T16:03:37.455Z,4.77
2023-02-16T16:06:41.112Z,4.67
2023-02-16T16:09:46.030Z,4.58
2023-02-16T16:12:49.942Z,4.40
2023-02-16T16:15:54.594Z,4.32
2023-02-16T16:19:06.835Z,4.05
2023-02-16T16:22:37.224Z,3.89
2023-02-16T16:25:48.826Z,3.81
2023-02-16T16:28:52.871Z,3.72
2023-02-16T16:31:56.941Z,3.68
2023-02-16T16:35:00.651Z,3.60
2023-02-16T16:38:04.056Z,3.50
2023-02-16T16:41:07.225Z,3.62
2023-02-16T16:44:28.548Z,3.62
2023-02-16T16:47:41.457Z,3.45
2023-02-16T16:50:44.525Z,3.27
2023-02-16T16:53:53.751Z,3.16
2023-02-16T16:56:57.234Z,3.01
2023-02-16T17:00:00.158Z,2.95
2023-02-16T17:03:05.161Z,2.85
2023-02-16T17:06:08.965Z,2.84
2023-02-16T17:09:12.022Z,2.83
2023-02-16T17:12:15.378Z,2.82
2023-02-16T17:15:46.103Z,2.75
2023-02-16T17:18:49.289Z,2.78
2023-02-16T17:21:52.198Z,2.86
2023-02-16T17:24:56.270Z,2.83
2023-02-16T17:27:59.799Z,2.76
2023-02-16T17:31:07.870Z,2.61
2023-02-16T17:34:10.775Z,2.61
2023-02-16T17:37:14.480Z,2.50
2023-02-16T17:40:22.041Z,2.39
2023-02-16T17:43:28.756Z,2.35
2023-02-16T17:46:33.112Z,2.36
2023-02-16T17:49:36.424Z,2.40
2023-02-16T17:52:40.814Z,2.49
2023-02-16T17:55:45.129Z,2.45
2023-02-16T17:58:48.566Z,2.49
2023-02-16T18:01:52.034Z,2.59
2023-02-16T18:04:56.372Z,2.51
2023-02-16T18:07:59.739Z,2.18
2023-02-16T18:11:03.420Z,1.87
2023-02-16T18:14:06.771Z,1.78
2023-02-16T18:17:12.389Z,1.73
2023-02-16T18:20:16.874Z,1.73
2023-02-16T18:23:21.186Z,1.91
2023-02-16T18:26:24.419Z,1.92
2023-02-16T18:29:28.139Z,1.93
2023-02-16T18:32:32.207Z,1.88
2023-02-16T18:35:35.332Z,1.77
2023-02-16T18:38:40.354Z,1.75
2023-02-16T18:41:43.612Z,1.75
2023-02-16T18:44:49.513Z,1.78
2023-02-16T18:47:52.906Z,1.76
2023-02-16T18:50:56.008Z,1.87
2023-02-16T18:53:59.746Z,1.87
2023-02-16T18:57:02.862Z,1.91
2023-02-16T19:00:07.362Z,1.86
2023-02-16T19:03:10.794Z,1.68
2023-02-16T19:06:14.385Z,1.50
2023-02-16T19:09:18.397Z,1.49
2023-02-16T19:12:22.288Z,1.61
2023-02-16T19:15:25.709Z,1.53
2023-02-16T19:18:32.583Z,1.44
2023-02-16T19:21:39.442Z,1.51
2023-02-16T19:24:43.473Z,1.38
2023-02-16T19:27:47.390Z,1.34
2023-02-16T19:30:50.558Z,1.54
2023-02-16T19:33:53.622Z,1.58
2023-02-16T19:36:56.570Z,1.57
2023-02-16T19:39:59.490Z,1.30
2023-02-16T19:43:02.871Z,1.14
2023-02-16T19:46:06.999Z,1.12
2023-02-16T19:49:14.646Z,1.11
2023-02-16T19:52:28.066Z,1.05
2023-02-16T19:55:32.876Z,1.08
2023-02-16T19:58:36.157Z,0.97
2023-02-16T20:01:39.958Z,1.01
2023-02-16T20:04:44.443Z,1.02
2023-02-16T20:07:48.393Z,0.91
2023-02-16T20:10:51.715Z,0.67
2023-02-16T20:13:57.032Z,0.63
2023-02-16T20:17:00.690Z,0.72
2023-02-16T20:20:06.120Z,0.84
2023-02-16T20:23:08.959Z,0.89
2023-02-16T20:26:21.652Z,0.89
2023-02-16T20:29:25.057Z,0.92
2023-02-16T20:32:28.655Z,0.76
2023-02-16T20:35:32.239Z,0.87
2023-02-16T20:38:36.107Z,0.63
2023-02-16T20:41:40.097Z,0.59
2023-02-16T20:44:43.555Z,0.63
2023-02-16T20:47:47.642Z,0.63
2023-02-16T20:51:00.975Z,0.62
2023-02-16T20:54:04.895Z,0.63
2023-02-16T20:57:21.379Z,0.68
2023-02-16T21:00:30.018Z,0.52
2023-02-16T21:03:33.132Z,0.46
2023-02-16T21:06:37.865Z,0.36
2023-02-16T21:09:42.905Z,0.48
2023-02-16T21:12:47.571Z,0.49
2023-02-16T21:15:50.981Z,0.45
2023-02-16T21:18:53.899Z,0.40
2023-02-16T21:21:56.829Z,0.44
2023-02-16T21:24:59.937Z,0.37
2023-02-16T21:28:03.559Z,0.25
2023-02-16T21:31:09.291Z,0.29
2023-02-16T21:34:12.841Z,0.30
2023-02-16T21:37:16.742Z,0.21
2023-02-16T21:40:38.650Z,0.26
2023-02-16T21:43:41.540Z,0.40
2023-02-16T21:46:47.289Z,0.34
2023-02-16T21:49:50.087Z,0.20
2023-02-16T21:52:53.530Z,0.18
2023-02-16T21:56:28.510Z,0.25
2023-02-16T21:59:31.992Z,0.30
2023-02-16T22:02:34.647Z,0.17
2023-02-16T22:05:37.774Z,0.31
2023-02-16T22:08:41.717Z,0.15
2023-02-16T22:11:44.913Z,0.17
2023-02-16T22:14:47.971Z,0.14
2023-02-16T22:17:50.990Z,0.19
2023-02-16T22:20:53.750Z,0.13
2023-02-16T22:23:57.405Z,-0.09
2023-02-16T22:27:00.466Z,-0.06
2023-02-16T22:30:03.799Z,-0.12
2023-02-16T22:33:06.962Z,-0.11
2023-02-16T22:36:14.070Z,-0.09
2023-02-16T22:39:17.727Z,-0.19
2023-02-16T22:42:20.659Z,-0.17
2023-02-16T22:45:24.141Z,-0.15
2023-02-16T22:48:26.976Z,-0.13
2023-02-16T22:51:31.745Z,-0.09
2023-02-16T22:54:34.626Z,-0.15
2023-02-16T22:57:38.267Z,-0.01
2023-02-16T23:00:41.024Z,0.07
2023-02-16T23:03:58.649Z,0.10
2023-02-16T23:07:01.556Z,0.05
2023-02-16T23:10:04.758Z,0.14
2023-02-16T23:13:09.439Z,0.25
2023-02-16T23:16:14.894Z,0.14
2023-02-16T23:19:20.247Z,0.12
2023-02-16T23:22:22.988Z,0.12
2023-02-16T23:25:34.658Z,0.01
2023-02-16T23:28:39.143Z,0.02
2023-02-16T23:31:43.338Z,-0.05
2023-02-16T23:34:46.447Z,0.04
2023-02-16T23:37:49.021Z,-0.04
2023-02-16T23:40:58.139Z,0.06
2023-02-16T23:44:01.346Z,0.09
2023-02-16T23:47:04.363Z,0.05
2023-02-16T23:50:07.344Z,0.06
2023-02-16T23:53:10.528Z,0.14
2023-02-16T23:56:16.626Z,0.08
2023-02-16T23:59:19.655Z,0.00
